sensor_id;sensor_type;location;lat;lon;timestamp;temperature;humidity
5899;DHT22;2975;50.956;6.962;2023-06-10T00:01:29;19.40;99.90
5899;DHT22;2975;50.956;6.962;2023-06-10T00:03:55;19.40;99.90
5899;DHT22;2975;50.956;6.962;2023-06-10T00:06:21;19.40;99.90
5899;DHT22;2975;50.956;6.962;2023-06-10T00:08:50;19.30;99.90
5899;DHT22;2975;50.956;6.962;2023-06-10T00:11:15;19.20;99.90
5899;DHT22;2975;50.956;6.962;2023-06-10T00:13:41;19.20;99.90
5899;DHT22;2975;50.956;6.962;2023-06-10T00:16:07;19.20;99.90
5899;DHT22;2975;50.956;6.962;2023-06-10T00:18:32;19.10;99.90
5899;DHT22;2975;50.956;6.962;2023-06-10T00:20:58;19.10;99.90
5899;DHT22;2975;50.956;6.962;2023-06-10T00:23:29;19.10;99.90
5899;DHT22;2975;50.956;6.962;2023-06-10T00:26:00;19.00;99.90
5899;DHT22;2975;50.956;6.962;2023-06-10T00:28:25;19.00;99.90
5899;DHT22;2975;50.956;6.962;2023-06-10T00:30:51;19.00;99.90
5899;DHT22;2975;50.956;6.962;2023-06-10T00:33:17;18.90;99.90
5899;DHT22;2975;50.956;6.962;2023-06-10T00:35:42;18.90;99.90
5899;DHT22;2975;50.956;6.962;2023-06-10T00:38:08;18.90;99.90
5899;DHT22;2975;50.956;6.962;2023-06-10T00:40:39;18.90;99.90
5899;DHT22;2975;50.956;6.962;2023-06-10T00:43:05;18.80;99.90
5899;DHT22;2975;50.956;6.962;2023-06-10T00:45:31;18.80;99.90
5899;DHT22;2975;50.956;6.962;2023-06-10T00:47:56;18.80;99.90
5899;DHT22;2975;50.956;6.962;2023-06-10T00:50:22;18.70;99.90
5899;DHT22;2975;50.956;6.962;2023-06-10T00:52:47;18.70;99.90
5899;DHT22;2975;50.956;6.962;2023-06-10T00:55:16;18.70;99.90
5899;DHT22;2975;50.956;6.962;2023-06-10T00:57:42;18.60;99.90
5899;DHT22;2975;50.956;6.962;2023-06-10T01:00:10;18.70;99.90
5899;DHT22;2975;50.956;6.962;2023-06-10T01:02:36;18.60;99.90
5899;DHT22;2975;50.956;6.962;2023-06-10T01:05:02;18.60;99.90
5899;DHT22;2975;50.956;6.962;2023-06-10T01:08:35;18.60;99.90
5899;DHT22;2975;50.956;6.962;2023-06-10T01:10:39;18.60;99.90
5899;DHT22;2975;50.956;6.962;2023-06-10T01:13:07;18.60;99.90
5899;DHT22;2975;50.956;6.962;2023-06-10T01:15:37;18.50;99.90
5899;DHT22;2975;50.956;6.962;2023-06-10T01:18:05;18.50;99.90
5899;DHT22;2975;50.956;6.962;2023-06-10T01:20:34;18.50;99.90
5899;DHT22;2975;50.956;6.962;2023-06-10T01:23:02;18.50;99.90
5899;DHT22;2975;50.956;6.962;2023-06-10T01:25:31;18.40;99.90
5899;DHT22;2975;50.956;6.962;2023-06-10T01:33:12;18.30;99.90
5899;DHT22;2975;50.956;6.962;2023-06-10T01:35:40;18.30;99.90
5899;DHT22;2975;50.956;6.962;2023-06-10T01:38:06;18.30;99.90
5899;DHT22;2975;50.956;6.962;2023-06-10T01:40:32;18.30;99.90
5899;DHT22;2975;50.956;6.962;2023-06-10T01:42:59;18.30;99.90
5899;DHT22;2975;50.956;6.962;2023-06-10T01:45:24;18.30;99.90
5899;DHT22;2975;50.956;6.962;2023-06-10T01:47:50;18.20;99.90
5899;DHT22;2975;50.956;6.962;2023-06-10T01:50:16;18.20;99.90
5899;DHT22;2975;50.956;6.962;2023-06-10T01:52:42;18.20;99.90
5899;DHT22;2975;50.956;6.962;2023-06-10T01:55:07;18.20;99.90
5899;DHT22;2975;50.956;6.962;2023-06-10T01:57:33;18.20;99.90
5899;DHT22;2975;50.956;6.962;2023-06-10T01:59:59;18.10;99.90
5899;DHT22;2975;50.956;6.962;2023-06-10T02:02:24;18.10;99.90
5899;DHT22;2975;50.956;6.962;2023-06-10T02:04:50;18.10;99.90
5899;DHT22;2975;50.956;6.962;2023-06-10T02:07:16;18.10;99.90
5899;DHT22;2975;50.956;6.962;2023-06-10T02:09:41;18.00;99.90
5899;DHT22;2975;50.956;6.962;2023-06-10T02:12:07;18.00;99.90
5899;DHT22;2975;50.956;6.962;2023-06-10T02:14:33;18.00;99.90
5899;DHT22;2975;50.956;6.962;2023-06-10T02:16:59;17.90;99.90
5899;DHT22;2975;50.956;6.962;2023-06-10T02:19:24;17.90;99.90
5899;DHT22;2975;50.956;6.962;2023-06-10T02:21:52;17.90;99.90
5899;DHT22;2975;50.956;6.962;2023-06-10T02:24:17;17.90;99.90
5899;DHT22;2975;50.956;6.962;2023-06-10T02:26:43;17.90;99.90
5899;DHT22;2975;50.956;6.962;2023-06-10T02:29:09;17.90;99.90
5899;DHT22;2975;50.956;6.962;2023-06-10T02:31:35;17.90;99.90
5899;DHT22;2975;50.956;6.962;2023-06-10T02:34:01;17.90;99.90
5899;DHT22;2975;50.956;6.962;2023-06-10T02:36:27;17.80;99.90
5899;DHT22;2975;50.956;6.962;2023-06-10T02:38:53;17.80;99.90
5899;DHT22;2975;50.956;6.962;2023-06-10T02:41:19;17.70;99.90
5899;DHT22;2975;50.956;6.962;2023-06-10T02:43:44;17.60;99.90
5899;DHT22;2975;50.956;6.962;2023-06-10T02:46:10;17.60;99.90
5899;DHT22;2975;50.956;6.962;2023-06-10T02:48:43;17.60;99.90
5899;DHT22;2975;50.956;6.962;2023-06-10T02:51:11;17.50;99.90
5899;DHT22;2975;50.956;6.962;2023-06-10T02:53:37;17.50;99.90
5899;DHT22;2975;50.956;6.962;2023-06-10T02:56:02;17.50;99.90
5899;DHT22;2975;50.956;6.962;2023-06-10T02:58:28;17.50;99.90
5899;DHT22;2975;50.956;6.962;2023-06-10T03:00:54;17.40;99.90
5899;DHT22;2975;50.956;6.962;2023-06-10T03:03:20;17.40;99.90
5899;DHT22;2975;50.956;6.962;2023-06-10T03:05:48;17.40;99.90
5899;DHT22;2975;50.956;6.962;2023-06-10T03:08:14;17.40;99.90
5899;DHT22;2975;50.956;6.962;2023-06-10T03:10:40;17.40;99.90
5899;DHT22;2975;50.956;6.962;2023-06-10T03:13:05;17.30;99.90
5899;DHT22;2975;50.956;6.962;2023-06-10T03:15:31;17.40;99.90
5899;DHT22;2975;50.956;6.962;2023-06-10T03:17:59;17.40;99.90
5899;DHT22;2975;50.956;6.962;2023-06-10T03:20:25;17.30;99.90
5899;DHT22;2975;50.956;6.962;2023-06-10T03:22:53;17.30;99.90
5899;DHT22;2975;50.956;6.962;2023-06-10T03:25:18;17.30;99.90
5899;DHT22;2975;50.956;6.962;2023-06-10T03:27:46;17.30;99.90
5899;DHT22;2975;50.956;6.962;2023-06-10T03:30:12;17.30;99.90
5899;DHT22;2975;50.956;6.962;2023-06-10T03:32:38;17.20;99.90
5899;DHT22;2975;50.956;6.962;2023-06-10T03:35:05;17.20;99.90
5899;DHT22;2975;50.956;6.962;2023-06-10T03:37:30;17.20;99.90
5899;DHT22;2975;50.956;6.962;2023-06-10T03:39:56;17.20;99.90
5899;DHT22;2975;50.956;6.962;2023-06-10T03:42:21;17.10;99.90
5899;DHT22;2975;50.956;6.962;2023-06-10T03:44:47;17.10;99.90
5899;DHT22;2975;50.956;6.962;2023-06-10T03:47:12;17.10;99.90
5899;DHT22;2975;50.956;6.962;2023-06-10T03:49:38;17.20;99.90
5899;DHT22;2975;50.956;6.962;2023-06-10T03:52:06;17.20;99.90
5899;DHT22;2975;50.956;6.962;2023-06-10T03:54:31;17.30;99.90
5899;DHT22;2975;50.956;6.962;2023-06-10T03:56:59;17.30;99.90
5899;DHT22;2975;50.956;6.962;2023-06-10T03:59:25;17.40;99.90
5899;DHT22;2975;50.956;6.962;2023-06-10T04:01:51;17.40;99.90
5899;DHT22;2975;50.956;6.962;2023-06-10T04:04:17;17.40;99.90
5899;DHT22;2975;50.956;6.962;2023-06-10T04:06:42;17.40;99.90
5899;DHT22;2975;50.956;6.962;2023-06-10T04:09:09;17.50;99.90
5899;DHT22;2975;50.956;6.962;2023-06-10T04:11:35;17.50;99.90
5899;DHT22;2975;50.956;6.962;2023-06-10T04:14:01;17.60;99.90
5899;DHT22;2975;50.956;6.962;2023-06-10T04:16:27;17.60;99.90
5899;DHT22;2975;50.956;6.962;2023-06-10T04:18:53;17.70;99.90
5899;DHT22;2975;50.956;6.962;2023-06-10T04:21:18;17.70;99.90
5899;DHT22;2975;50.956;6.962;2023-06-10T04:23:44;17.90;99.90
5899;DHT22;2975;50.956;6.962;2023-06-10T04:26:10;18.10;99.90
5899;DHT22;2975;50.956;6.962;2023-06-10T04:28:37;18.50;99.90
5899;DHT22;2975;50.956;6.962;2023-06-10T04:31:03;18.60;99.90
5899;DHT22;2975;50.956;6.962;2023-06-10T04:33:30;18.60;99.90
5899;DHT22;2975;50.956;6.962;2023-06-10T04:35:56;18.60;99.90
5899;DHT22;2975;50.956;6.962;2023-06-10T04:38:21;18.60;99.90
5899;DHT22;2975;50.956;6.962;2023-06-10T04:40:47;18.80;99.90
5899;DHT22;2975;50.956;6.962;2023-06-10T04:43:13;19.40;99.90
5899;DHT22;2975;50.956;6.962;2023-06-10T04:45:38;20.40;99.90
5899;DHT22;2975;50.956;6.962;2023-06-10T04:48:05;21.70;99.90
5899;DHT22;2975;50.956;6.962;2023-06-10T04:50:30;22.80;99.90
5899;DHT22;2975;50.956;6.962;2023-06-10T04:52:58;24.00;97.20
5899;DHT22;2975;50.956;6.962;2023-06-10T04:55:24;25.30;95.40
5899;DHT22;2975;50.956;6.962;2023-06-10T04:57:49;26.20;92.90
5899;DHT22;2975;50.956;6.962;2023-06-10T05:00:15;26.60;91.50
5899;DHT22;2975;50.956;6.962;2023-06-10T05:02:42;27.20;90.90
5899;DHT22;2975;50.956;6.962;2023-06-10T05:05:07;27.90;88.50
5899;DHT22;2975;50.956;6.962;2023-06-10T05:07:33;28.30;86.50
5899;DHT22;2975;50.956;6.962;2023-06-10T05:09:58;29.10;86.70
5899;DHT22;2975;50.956;6.962;2023-06-10T05:12:24;29.90;81.90
5899;DHT22;2975;50.956;6.962;2023-06-10T05:14:50;30.10;80.00
5899;DHT22;2975;50.956;6.962;2023-06-10T05:17:15;30.10;80.70
5899;DHT22;2975;50.956;6.962;2023-06-10T05:19:41;30.40;78.90
5899;DHT22;2975;50.956;6.962;2023-06-10T05:22:08;30.80;77.50
5899;DHT22;2975;50.956;6.962;2023-06-10T05:24:34;31.60;76.10
5899;DHT22;2975;50.956;6.962;2023-06-10T05:27:00;32.40;74.70
5899;DHT22;2975;50.956;6.962;2023-06-10T05:29:25;33.40;71.40
5899;DHT22;2975;50.956;6.962;2023-06-10T05:31:51;34.50;68.90
5899;DHT22;2975;50.956;6.962;2023-06-10T05:34:17;35.50;63.90
5899;DHT22;2975;50.956;6.962;2023-06-10T05:36:42;36.10;60.10
5899;DHT22;2975;50.956;6.962;2023-06-10T05:39:09;36.60;57.30
5899;DHT22;2975;50.956;6.962;2023-06-10T05:41:35;37.10;55.60
5899;DHT22;2975;50.956;6.962;2023-06-10T05:44:01;37.60;53.50
5899;DHT22;2975;50.956;6.962;2023-06-10T05:46:27;38.00;51.20
5899;DHT22;2975;50.956;6.962;2023-06-10T05:48:52;37.90;49.50
5899;DHT22;2975;50.956;6.962;2023-06-10T05:51:18;38.40;49.10
5899;DHT22;2975;50.956;6.962;2023-06-10T05:53:43;38.70;47.00
5899;DHT22;2975;50.956;6.962;2023-06-10T05:56:12;38.40;47.20
5899;DHT22;2975;50.956;6.962;2023-06-10T05:58:37;38.50;46.30
5899;DHT22;2975;50.956;6.962;2023-06-10T06:01:03;38.90;45.90
5899;DHT22;2975;50.956;6.962;2023-06-10T06:03:29;38.90;45.40
5899;DHT22;2975;50.956;6.962;2023-06-10T06:05:54;39.30;44.60
5899;DHT22;2975;50.956;6.962;2023-06-10T06:08:20;38.90;44.60
5899;DHT22;2975;50.956;6.962;2023-06-10T06:10:46;39.40;43.10
5899;DHT22;2975;50.956;6.962;2023-06-10T06:13:13;39.90;41.80
5899;DHT22;2975;50.956;6.962;2023-06-10T06:15:38;40.60;41.00
5899;DHT22;2975;50.956;6.962;2023-06-10T06:18:04;40.80;40.40
5899;DHT22;2975;50.956;6.962;2023-06-10T06:20:29;41.00;39.50
5899;DHT22;2975;50.956;6.962;2023-06-10T06:22:55;41.30;38.60
5899;DHT22;2975;50.956;6.962;2023-06-10T06:25:21;41.20;38.70
5899;DHT22;2975;50.956;6.962;2023-06-10T06:27:46;41.70;37.20
5899;DHT22;2975;50.956;6.962;2023-06-10T06:30:12;42.00;35.70
5899;DHT22;2975;50.956;6.962;2023-06-10T06:32:37;41.80;37.20
5899;DHT22;2975;50.956;6.962;2023-06-10T06:35:03;41.50;37.60
5899;DHT22;2975;50.956;6.962;2023-06-10T06:37:31;41.70;36.80
5899;DHT22;2975;50.956;6.962;2023-06-10T06:39:57;41.50;37.30
5899;DHT22;2975;50.956;6.962;2023-06-10T06:42:23;40.90;37.10
5899;DHT22;2975;50.956;6.962;2023-06-10T06:44:49;38.80;36.10
5899;DHT22;2975;50.956;6.962;2023-06-10T06:47:15;35.80;38.50
5899;DHT22;2975;50.956;6.962;2023-06-10T06:49:43;33.10;42.90
5899;DHT22;2975;50.956;6.962;2023-06-10T06:52:08;30.80;45.70
5899;DHT22;2975;50.956;6.962;2023-06-10T06:54:34;29.20;48.10
5899;DHT22;2975;50.956;6.962;2023-06-10T06:57:00;28.30;51.00
5899;DHT22;2975;50.956;6.962;2023-06-10T06:59:25;27.60;52.70
5899;DHT22;2975;50.956;6.962;2023-06-10T07:01:51;27.10;54.30
5899;DHT22;2975;50.956;6.962;2023-06-10T07:04:19;26.80;55.00
5899;DHT22;2975;50.956;6.962;2023-06-10T07:06:47;26.30;55.90
5899;DHT22;2975;50.956;6.962;2023-06-10T07:09:12;26.20;57.40
5899;DHT22;2975;50.956;6.962;2023-06-10T07:11:38;25.90;57.60
5899;DHT22;2975;50.956;6.962;2023-06-10T07:14:04;25.80;58.20
5899;DHT22;2975;50.956;6.962;2023-06-10T07:16:30;25.80;58.80
5899;DHT22;2975;50.956;6.962;2023-06-10T07:18:55;25.60;59.90
5899;DHT22;2975;50.956;6.962;2023-06-10T07:21:21;25.50;59.50
5899;DHT22;2975;50.956;6.962;2023-06-10T07:23:48;25.20;60.40
5899;DHT22;2975;50.956;6.962;2023-06-10T07:26:14;25.20;61.20
5899;DHT22;2975;50.956;6.962;2023-06-10T07:28:40;25.10;62.70
5899;DHT22;2975;50.956;6.962;2023-06-10T07:31:07;25.20;62.70
5899;DHT22;2975;50.956;6.962;2023-06-10T07:33:33;25.30;63.60
5899;DHT22;2975;50.956;6.962;2023-06-10T07:35:59;25.30;64.40
5899;DHT22;2975;50.956;6.962;2023-06-10T07:38:26;25.40;61.80
5899;DHT22;2975;50.956;6.962;2023-06-10T07:40:52;25.50;61.10
5899;DHT22;2975;50.956;6.962;2023-06-10T07:43:17;25.60;60.70
5899;DHT22;2975;50.956;6.962;2023-06-10T07:45:43;25.80;61.50
5899;DHT22;2975;50.956;6.962;2023-06-10T07:48:09;25.80;62.00
5899;DHT22;2975;50.956;6.962;2023-06-10T07:50:34;25.80;61.50
5899;DHT22;2975;50.956;6.962;2023-06-10T07:53:00;25.90;62.20
5899;DHT22;2975;50.956;6.962;2023-06-10T07:55:26;25.90;61.50
5899;DHT22;2975;50.956;6.962;2023-06-10T07:57:55;26.10;61.10
5899;DHT22;2975;50.956;6.962;2023-06-10T08:00:20;26.00;61.00
5899;DHT22;2975;50.956;6.962;2023-06-10T08:02:46;26.10;60.80
5899;DHT22;2975;50.956;6.962;2023-06-10T08:05:12;25.90;61.50
5899;DHT22;2975;50.956;6.962;2023-06-10T08:07:39;26.00;61.80
5899;DHT22;2975;50.956;6.962;2023-06-10T08:10:05;26.10;61.50
5899;DHT22;2975;50.956;6.962;2023-06-10T08:12:32;26.30;61.00
5899;DHT22;2975;50.956;6.962;2023-06-10T08:14:58;26.30;61.20
5899;DHT22;2975;50.956;6.962;2023-06-10T08:17:23;26.20;62.30
5899;DHT22;2975;50.956;6.962;2023-06-10T08:19:49;26.20;61.70
5899;DHT22;2975;50.956;6.962;2023-06-10T08:22:15;26.20;61.90
5899;DHT22;2975;50.956;6.962;2023-06-10T08:24:40;26.30;62.70
5899;DHT22;2975;50.956;6.962;2023-06-10T08:27:06;26.40;62.40
5899;DHT22;2975;50.956;6.962;2023-06-10T08:29:32;26.40;61.90
5899;DHT22;2975;50.956;6.962;2023-06-10T08:31:58;26.60;61.60
5899;DHT22;2975;50.956;6.962;2023-06-10T08:34:24;26.50;61.80
5899;DHT22;2975;50.956;6.962;2023-06-10T08:36:49;26.50;62.20
5899;DHT22;2975;50.956;6.962;2023-06-10T08:39:21;26.40;61.50
5899;DHT22;2975;50.956;6.962;2023-06-10T08:41:57;26.40;62.20
5899;DHT22;2975;50.956;6.962;2023-06-10T08:44:29;26.50;62.30
5899;DHT22;2975;50.956;6.962;2023-06-10T08:46:58;26.40;62.50
5899;DHT22;2975;50.956;6.962;2023-06-10T08:49:26;26.40;61.60
5899;DHT22;2975;50.956;6.962;2023-06-10T08:51:56;26.40;62.90
5899;DHT22;2975;50.956;6.962;2023-06-10T08:54:25;26.50;62.40
5899;DHT22;2975;50.956;6.962;2023-06-10T08:56:55;26.60;63.10
5899;DHT22;2975;50.956;6.962;2023-06-10T08:59:21;26.60;61.50
5899;DHT22;2975;50.956;6.962;2023-06-10T09:01:47;26.70;61.90
5899;DHT22;2975;50.956;6.962;2023-06-10T09:04:13;26.90;61.70
5899;DHT22;2975;50.956;6.962;2023-06-10T09:06:40;27.00;61.30
5899;DHT22;2975;50.956;6.962;2023-06-10T09:09:06;26.90;61.50
5899;DHT22;2975;50.956;6.962;2023-06-10T09:11:32;27.10;60.60
5899;DHT22;2975;50.956;6.962;2023-06-10T09:13:58;27.20;61.40
5899;DHT22;2975;50.956;6.962;2023-06-10T09:16:27;27.10;60.60
5899;DHT22;2975;50.956;6.962;2023-06-10T09:18:53;27.30;60.70
5899;DHT22;2975;50.956;6.962;2023-06-10T09:21:24;27.30;61.10
5899;DHT22;2975;50.956;6.962;2023-06-10T09:23:50;27.30;59.70
5899;DHT22;2975;50.956;6.962;2023-06-10T09:26:16;27.30;60.50
5899;DHT22;2975;50.956;6.962;2023-06-10T09:28:48;27.40;59.70
5899;DHT22;2975;50.956;6.962;2023-06-10T09:31:16;27.40;61.20
5899;DHT22;2975;50.956;6.962;2023-06-10T09:33:47;27.50;60.60
5899;DHT22;2975;50.956;6.962;2023-06-10T09:36:22;27.80;59.80
5899;DHT22;2975;50.956;6.962;2023-06-10T09:38:49;27.90;60.10
5899;DHT22;2975;50.956;6.962;2023-06-10T09:41:16;28.10;60.10
5899;DHT22;2975;50.956;6.962;2023-06-10T09:43:44;28.10;60.10
5899;DHT22;2975;50.956;6.962;2023-06-10T09:46:17;28.00;60.10
5899;DHT22;2975;50.956;6.962;2023-06-10T09:48:44;28.00;60.10
5899;DHT22;2975;50.956;6.962;2023-06-10T09:51:11;28.10;60.60
5899;DHT22;2975;50.956;6.962;2023-06-10T09:53:37;28.00;58.80
5899;DHT22;2975;50.956;6.962;2023-06-10T09:56:03;27.80;59.60
5899;DHT22;2975;50.956;6.962;2023-06-10T09:58:36;27.80;60.50
5899;DHT22;2975;50.956;6.962;2023-06-10T10:01:06;27.80;61.50
5899;DHT22;2975;50.956;6.962;2023-06-10T10:03:32;27.60;62.70
5899;DHT22;2975;50.956;6.962;2023-06-10T10:05:59;27.70;61.70
5899;DHT22;2975;50.956;6.962;2023-06-10T10:08:25;27.70;62.00
5899;DHT22;2975;50.956;6.962;2023-06-10T10:10:51;27.80;61.30
5899;DHT22;2975;50.956;6.962;2023-06-10T10:13:17;28.00;61.30
5899;DHT22;2975;50.956;6.962;2023-06-10T10:15:44;28.10;61.10
5899;DHT22;2975;50.956;6.962;2023-06-10T10:18:11;28.10;61.60
5899;DHT22;2975;50.956;6.962;2023-06-10T10:20:47;28.10;61.00
5899;DHT22;2975;50.956;6.962;2023-06-10T10:23:20;28.20;59.40
5899;DHT22;2975;50.956;6.962;2023-06-10T10:25:52;28.40;58.60
5899;DHT22;2975;50.956;6.962;2023-06-10T10:28:20;28.60;58.70
5899;DHT22;2975;50.956;6.962;2023-06-10T10:30:49;28.90;57.20
5899;DHT22;2975;50.956;6.962;2023-06-10T10:33:33;28.90;58.20
5899;DHT22;2975;50.956;6.962;2023-06-10T10:36:02;28.90;59.00
5899;DHT22;2975;50.956;6.962;2023-06-10T10:38:28;28.80;57.70
5899;DHT22;2975;50.956;6.962;2023-06-10T10:40:54;29.10;57.10
5899;DHT22;2975;50.956;6.962;2023-06-10T10:43:21;29.30;55.60
5899;DHT22;2975;50.956;6.962;2023-06-10T10:46:01;29.40;55.40
5899;DHT22;2975;50.956;6.962;2023-06-10T10:48:27;29.60;53.70
5899;DHT22;2975;50.956;6.962;2023-06-10T10:50:58;29.70;53.50
5899;DHT22;2975;50.956;6.962;2023-06-10T10:53:24;29.70;54.60
5899;DHT22;2975;50.956;6.962;2023-06-10T10:56:06;29.90;53.60
5899;DHT22;2975;50.956;6.962;2023-06-10T10:58:33;30.30;53.10
5899;DHT22;2975;50.956;6.962;2023-06-10T11:04:21;30.50;52.70
5899;DHT22;2975;50.956;6.962;2023-06-10T11:06:53;30.60;49.90
5899;DHT22;2975;50.956;6.962;2023-06-10T11:09:27;30.90;50.90
5899;DHT22;2975;50.956;6.962;2023-06-10T11:11:59;31.20;49.80
5899;DHT22;2975;50.956;6.962;2023-06-10T11:14:29;31.70;46.20
5899;DHT22;2975;50.956;6.962;2023-06-10T11:16:59;32.00;45.20
5899;DHT22;2975;50.956;6.962;2023-06-10T11:19:37;32.40;43.80
5899;DHT22;2975;50.956;6.962;2023-06-10T11:22:07;32.60;43.90
5899;DHT22;2975;50.956;6.962;2023-06-10T11:24:33;32.60;44.20
5899;DHT22;2975;50.956;6.962;2023-06-10T11:27:23;32.70;43.00
5899;DHT22;2975;50.956;6.962;2023-06-10T11:30:20;32.40;43.60
5899;DHT22;2975;50.956;6.962;2023-06-10T11:32:50;32.00;46.10
5899;DHT22;2975;50.956;6.962;2023-06-10T11:35:18;31.60;47.50
5899;DHT22;2975;50.956;6.962;2023-06-10T11:37:44;31.40;47.40
5899;DHT22;2975;50.956;6.962;2023-06-10T11:40:11;31.30;46.40
5899;DHT22;2975;50.956;6.962;2023-06-10T11:42:41;31.30;43.20
5899;DHT22;2975;50.956;6.962;2023-06-10T11:45:07;31.00;43.80
5899;DHT22;2975;50.956;6.962;2023-06-10T11:47:33;30.90;43.90
5899;DHT22;2975;50.956;6.962;2023-06-10T11:49:59;30.60;44.60
5899;DHT22;2975;50.956;6.962;2023-06-10T11:52:31;30.60;46.10
5899;DHT22;2975;50.956;6.962;2023-06-10T11:55:05;30.50;45.10
5899;DHT22;2975;50.956;6.962;2023-06-10T11:57:34;30.40;44.70
5899;DHT22;2975;50.956;6.962;2023-06-10T12:00:07;30.30;45.00
5899;DHT22;2975;50.956;6.962;2023-06-10T12:02:32;30.20;46.20
5899;DHT22;2975;50.956;6.962;2023-06-10T12:05:13;30.30;44.90
5899;DHT22;2975;50.956;6.962;2023-06-10T12:07:39;30.20;44.40
5899;DHT22;2975;50.956;6.962;2023-06-10T12:10:04;30.30;44.80
5899;DHT22;2975;50.956;6.962;2023-06-10T12:12:30;30.30;45.50
5899;DHT22;2975;50.956;6.962;2023-06-10T12:15:00;30.50;45.40
5899;DHT22;2975;50.956;6.962;2023-06-10T12:19:57;30.30;47.10
5899;DHT22;2975;50.956;6.962;2023-06-10T12:22:23;29.90;48.40
5899;DHT22;2975;50.956;6.962;2023-06-10T12:25:04;29.90;48.70
5899;DHT22;2975;50.956;6.962;2023-06-10T12:27:32;30.10;48.30
5899;DHT22;2975;50.956;6.962;2023-06-10T12:29:59;30.30;48.40
5899;DHT22;2975;50.956;6.962;2023-06-10T12:32:51;30.30;47.20
5899;DHT22;2975;50.956;6.962;2023-06-10T12:35:25;30.30;46.90
5899;DHT22;2975;50.956;6.962;2023-06-10T12:38:03;30.40;47.40
5899;DHT22;2975;50.956;6.962;2023-06-10T12:40:34;30.50;47.50
5899;DHT22;2975;50.956;6.962;2023-06-10T12:43:01;30.50;47.30
5899;DHT22;2975;50.956;6.962;2023-06-10T12:45:32;30.60;45.80
5899;DHT22;2975;50.956;6.962;2023-06-10T12:50:39;30.30;47.40
5899;DHT22;2975;50.956;6.962;2023-06-10T12:53:05;30.20;47.70
5899;DHT22;2975;50.956;6.962;2023-06-10T12:55:31;30.40;47.50
5899;DHT22;2975;50.956;6.962;2023-06-10T12:57:58;30.70;47.10
5899;DHT22;2975;50.956;6.962;2023-06-10T13:00:23;30.90;46.30
5899;DHT22;2975;50.956;6.962;2023-06-10T13:02:59;31.20;43.90
5899;DHT22;2975;50.956;6.962;2023-06-10T13:05:25;31.40;43.10
5899;DHT22;2975;50.956;6.962;2023-06-10T13:07:51;31.50;43.10
5899;DHT22;2975;50.956;6.962;2023-06-10T13:10:17;31.60;41.10
5899;DHT22;2975;50.956;6.962;2023-06-10T13:12:43;31.70;42.10
5899;DHT22;2975;50.956;6.962;2023-06-10T13:15:10;31.80;41.80
5899;DHT22;2975;50.956;6.962;2023-06-10T13:17:36;32.00;41.30
5899;DHT22;2975;50.956;6.962;2023-06-10T13:20:07;32.00;41.30
5899;DHT22;2975;50.956;6.962;2023-06-10T13:22:34;31.70;42.40
5899;DHT22;2975;50.956;6.962;2023-06-10T13:25:01;31.60;41.00
5899;DHT22;2975;50.956;6.962;2023-06-10T13:27:28;31.30;42.00
5899;DHT22;2975;50.956;6.962;2023-06-10T13:29:54;31.10;42.40
5899;DHT22;2975;50.956;6.962;2023-06-10T13:32:20;30.80;42.30
5899;DHT22;2975;50.956;6.962;2023-06-10T13:34:46;30.60;42.60
5899;DHT22;2975;50.956;6.962;2023-06-10T13:37:12;30.40;42.40
5899;DHT22;2975;50.956;6.962;2023-06-10T13:39:43;30.10;41.90
5899;DHT22;2975;50.956;6.962;2023-06-10T13:42:08;30.20;43.20
5899;DHT22;2975;50.956;6.962;2023-06-10T13:44:34;30.10;42.40
5899;DHT22;2975;50.956;6.962;2023-06-10T13:47:05;30.20;42.40
5899;DHT22;2975;50.956;6.962;2023-06-10T13:49:32;30.20;41.80
5899;DHT22;2975;50.956;6.962;2023-06-10T13:51:57;30.20;41.80
5899;DHT22;2975;50.956;6.962;2023-06-10T13:54:23;30.10;42.00
5899;DHT22;2975;50.956;6.962;2023-06-10T13:56:49;29.90;42.60
5899;DHT22;2975;50.956;6.962;2023-06-10T13:59:14;29.80;43.10
5899;DHT22;2975;50.956;6.962;2023-06-10T14:01:40;30.00;43.30
5899;DHT22;2975;50.956;6.962;2023-06-10T14:04:06;30.30;42.20
5899;DHT22;2975;50.956;6.962;2023-06-10T14:06:33;30.60;41.50
5899;DHT22;2975;50.956;6.962;2023-06-10T14:08:59;30.40;44.10
5899;DHT22;2975;50.956;6.962;2023-06-10T14:11:25;30.00;44.70
5899;DHT22;2975;50.956;6.962;2023-06-10T14:13:51;29.80;45.10
5899;DHT22;2975;50.956;6.962;2023-06-10T14:16:16;30.20;42.40
5899;DHT22;2975;50.956;6.962;2023-06-10T14:18:42;30.60;42.20
5899;DHT22;2975;50.956;6.962;2023-06-10T14:21:07;30.60;43.90
5899;DHT22;2975;50.956;6.962;2023-06-10T14:23:33;30.60;43.50
5899;DHT22;2975;50.956;6.962;2023-06-10T14:25:59;30.70;42.40
5899;DHT22;2975;50.956;6.962;2023-06-10T14:28:24;31.10;41.30
5899;DHT22;2975;50.956;6.962;2023-06-10T14:30:51;31.40;41.50
5899;DHT22;2975;50.956;6.962;2023-06-10T14:33:17;31.80;40.70
5899;DHT22;2975;50.956;6.962;2023-06-10T14:35:43;31.70;41.60
5899;DHT22;2975;50.956;6.962;2023-06-10T14:38:09;31.30;42.10
5899;DHT22;2975;50.956;6.962;2023-06-10T14:40:35;31.60;41.50
5899;DHT22;2975;50.956;6.962;2023-06-10T14:43:01;31.90;41.50
5899;DHT22;2975;50.956;6.962;2023-06-10T14:45:29;32.20;39.80
5899;DHT22;2975;50.956;6.962;2023-06-10T14:47:55;32.00;40.10
5899;DHT22;2975;50.956;6.962;2023-06-10T14:50:20;32.10;40.00
5899;DHT22;2975;50.956;6.962;2023-06-10T14:52:46;32.00;39.90
5899;DHT22;2975;50.956;6.962;2023-06-10T14:55:12;32.10;40.30
5899;DHT22;2975;50.956;6.962;2023-06-10T14:57:38;32.00;39.00
5899;DHT22;2975;50.956;6.962;2023-06-10T15:00:04;32.00;39.90
5899;DHT22;2975;50.956;6.962;2023-06-10T15:02:30;31.50;40.30
5899;DHT22;2975;50.956;6.962;2023-06-10T15:04:55;31.20;40.80
5899;DHT22;2975;50.956;6.962;2023-06-10T15:07:21;30.80;41.10
5899;DHT22;2975;50.956;6.962;2023-06-10T15:09:46;30.40;41.90
5899;DHT22;2975;50.956;6.962;2023-06-10T15:12:12;30.10;42.60
5899;DHT22;2975;50.956;6.962;2023-06-10T15:14:38;30.20;43.20
5899;DHT22;2975;50.956;6.962;2023-06-10T15:17:03;30.10;42.30
5899;DHT22;2975;50.956;6.962;2023-06-10T15:19:29;30.10;41.60
5899;DHT22;2975;50.956;6.962;2023-06-10T15:21:55;30.20;41.80
5899;DHT22;2975;50.956;6.962;2023-06-10T15:24:20;30.10;42.80
5899;DHT22;2975;50.956;6.962;2023-06-10T15:26:46;30.10;43.10
5899;DHT22;2975;50.956;6.962;2023-06-10T15:29:11;30.10;43.40
5899;DHT22;2975;50.956;6.962;2023-06-10T15:31:38;30.00;43.80
5899;DHT22;2975;50.956;6.962;2023-06-10T15:34:04;30.00;43.70
5899;DHT22;2975;50.956;6.962;2023-06-10T15:36:32;30.00;44.40
5899;DHT22;2975;50.956;6.962;2023-06-10T15:39:02;30.10;44.70
5899;DHT22;2975;50.956;6.962;2023-06-10T15:41:28;30.20;43.50
5899;DHT22;2975;50.956;6.962;2023-06-10T15:43:54;30.30;43.30
5899;DHT22;2975;50.956;6.962;2023-06-10T15:46:20;30.30;42.50
5899;DHT22;2975;50.956;6.962;2023-06-10T15:48:45;30.20;42.40
5899;DHT22;2975;50.956;6.962;2023-06-10T15:51:11;29.90;42.30
5899;DHT22;2975;50.956;6.962;2023-06-10T15:53:37;29.80;42.50
5899;DHT22;2975;50.956;6.962;2023-06-10T15:56:03;29.80;42.50
5899;DHT22;2975;50.956;6.962;2023-06-10T15:58:28;29.80;42.90
5899;DHT22;2975;50.956;6.962;2023-06-10T16:00:54;29.90;42.90
5899;DHT22;2975;50.956;6.962;2023-06-10T16:03:19;29.90;43.10
5899;DHT22;2975;50.956;6.962;2023-06-10T16:05:45;30.00;42.80
5899;DHT22;2975;50.956;6.962;2023-06-10T16:08:11;30.20;42.00
5899;DHT22;2975;50.956;6.962;2023-06-10T16:10:36;30.20;40.80
5899;DHT22;2975;50.956;6.962;2023-06-10T16:13:02;30.20;40.30
5899;DHT22;2975;50.956;6.962;2023-06-10T16:15:28;30.20;40.10